createdAt,value
2018-10-07T00:02:25.685Z,11.20
2018-10-07T00:04:56.032Z,11.20
2018-10-07T00:07:26.186Z,11.10
2018-10-07T00:09:55.724Z,11.10
2018-10-07T00:12:25.077Z,11.00
2018-10-07T00:14:55.089Z,11.00
2018-10-07T00:17:24.594Z,10.90
2018-10-07T00:19:54.005Z,10.90
2018-10-07T00:22:23.680Z,10.90
2018-10-07T00:24:54.153Z,10.80
2018-10-07T00:27:23.249Z,10.80
2018-10-07T00:29:52.880Z,10.80
2018-10-07T00:32:23.017Z,10.70
2018-10-07T00:34:52.225Z,10.70
2018-10-07T00:37:21.688Z,10.70
2018-10-07T00:39:51.517Z,10.70
2018-10-07T00:42:21.706Z,10.60
2018-10-07T00:44:51.967Z,10.60
2018-10-07T00:47:21.301Z,10.60
2018-10-07T00:49:50.669Z,10.50
2018-10-07T00:52:20.007Z,10.40
2018-10-07T00:54:49.581Z,10.40
2018-10-07T00:57:20.686Z,10.40
2018-10-07T00:59:50.338Z,10.40
2018-10-07T01:02:19.698Z,10.40
2018-10-07T01:04:49.038Z,10.40
2018-10-07T01:07:18.340Z,10.30
2018-10-07T01:09:47.621Z,10.30
2018-10-07T01:12:16.960Z,10.30
2018-10-07T01:14:46.215Z,10.30
2018-10-07T01:17:15.417Z,10.30
2018-10-07T01:19:44.488Z,10.30
2018-10-07T01:22:13.838Z,10.30
2018-10-07T01:24:43.363Z,10.20
2018-10-07T01:27:12.788Z,10.20
2018-10-07T01:29:42.239Z,10.10
2018-10-07T01:32:11.368Z,10.00
2018-10-07T01:34:41.472Z,10.00
2018-10-07T01:37:10.634Z,9.90
2018-10-07T01:39:40.096Z,9.90
2018-10-07T01:42:09.569Z,9.90
2018-10-07T01:44:38.961Z,9.80
2018-10-07T01:47:08.391Z,9.80
2018-10-07T01:49:38.184Z,9.80
2018-10-07T01:52:07.610Z,9.80
2018-10-07T01:54:37.599Z,9.80
2018-10-07T01:57:07.524Z,9.80
2018-10-07T01:59:36.827Z,9.80
2018-10-07T02:02:05.941Z,9.90
2018-10-07T02:04:35.116Z,9.90
2018-10-07T02:07:04.210Z,10.10
2018-10-07T02:09:33.364Z,10.20
2018-10-07T02:12:02.784Z,10.20
2018-10-07T02:14:32.284Z,10.30
2018-10-07T02:17:02.012Z,10.20
2018-10-07T02:19:31.117Z,10.30
2018-10-07T02:22:00.794Z,10.30
2018-10-07T02:24:30.259Z,10.40
2018-10-07T02:26:59.480Z,10.40
2018-10-07T02:29:28.576Z,10.40
2018-10-07T02:31:58.484Z,10.50
2018-10-07T02:34:28.453Z,10.60
2018-10-07T02:36:57.660Z,10.70
2018-10-07T02:39:26.859Z,10.70
2018-10-07T02:41:56.563Z,10.70
2018-10-07T02:44:25.948Z,10.70
2018-10-07T02:46:55.984Z,10.60
2018-10-07T02:49:26.475Z,10.60
2018-10-07T02:51:55.688Z,10.60
2018-10-07T02:54:25.472Z,10.40
2018-10-07T02:56:54.491Z,10.30
2018-10-07T02:59:24.194Z,10.20
2018-10-07T03:01:55.636Z,10.10
2018-10-07T03:04:24.822Z,10.00
2018-10-07T03:06:53.908Z,9.90
2018-10-07T03:09:23.142Z,9.80
2018-10-07T03:11:52.311Z,9.80
2018-10-07T03:14:21.375Z,9.80
2018-10-07T03:16:50.611Z,9.70
2018-10-07T03:19:19.679Z,9.70
2018-10-07T03:21:48.866Z,9.70
2018-10-07T03:24:17.999Z,9.80
2018-10-07T03:26:47.204Z,9.70
2018-10-07T03:29:16.287Z,9.70
2018-10-07T03:31:45.802Z,9.80
2018-10-07T03:34:15.098Z,9.80
2018-10-07T03:36:44.357Z,9.80
2018-10-07T03:39:13.977Z,9.80
2018-10-07T03:41:43.529Z,9.80
2018-10-07T03:44:12.786Z,9.80
2018-10-07T03:46:41.960Z,9.70
2018-10-07T03:49:11.278Z,9.60
2018-10-07T03:51:40.403Z,9.70
2018-10-07T03:54:10.277Z,9.70
2018-10-07T03:56:39.683Z,9.70
2018-10-07T03:59:08.816Z,9.80
2018-10-07T04:01:38.260Z,9.90
2018-10-07T04:04:07.933Z,10.00
2018-10-07T04:06:37.565Z,10.10
2018-10-07T04:09:09.992Z,10.20
2018-10-07T04:11:39.870Z,10.30
2018-10-07T04:14:10.373Z,10.30
2018-10-07T04:16:40.543Z,10.40
2018-10-07T04:19:10.705Z,10.50
2018-10-07T04:21:47.235Z,10.50
2018-10-07T04:24:17.215Z,10.50
2018-10-07T04:26:47.333Z,10.50
2018-10-07T04:29:16.843Z,10.40
2018-10-07T04:31:46.239Z,10.40
2018-10-07T04:34:15.580Z,10.40
2018-10-07T04:36:45.100Z,10.40
2018-10-07T04:39:16.080Z,10.30
2018-10-07T04:41:46.395Z,10.40
2018-10-07T04:44:16.617Z,10.40
2018-10-07T04:46:47.294Z,10.30
2018-10-07T04:49:18.364Z,10.20
2018-10-07T04:51:48.010Z,10.00
2018-10-07T04:54:17.397Z,9.90
2018-10-07T04:56:46.505Z,9.80
2018-10-07T04:59:16.866Z,9.70
2018-10-07T05:01:48.065Z,9.70
2018-10-07T05:04:17.443Z,9.60
2018-10-07T05:06:46.979Z,9.60
2018-10-07T05:09:15.988Z,9.50
2018-10-07T05:11:45.015Z,9.60
2018-10-07T05:14:14.521Z,9.60
2018-10-07T05:16:47.756Z,9.70
2018-10-07T05:19:17.278Z,10.00
2018-10-07T05:21:46.393Z,10.30
2018-10-07T05:24:15.840Z,10.60
2018-10-07T05:26:45.084Z,10.60
2018-10-07T05:29:14.741Z,10.70
2018-10-07T05:31:43.917Z,10.70
2018-10-07T05:34:13.588Z,10.90
2018-10-07T05:36:43.053Z,11.00
2018-10-07T05:39:12.833Z,11.10
2018-10-07T05:41:42.141Z,11.20
2018-10-07T05:44:11.532Z,11.50
2018-10-07T05:46:41.454Z,11.70
2018-10-07T05:49:10.936Z,11.80
2018-10-07T05:51:40.363Z,11.90
2018-10-07T05:54:09.777Z,12.00
2018-10-07T05:56:40.427Z,12.10
2018-10-07T05:59:10.474Z,12.10
2018-10-07T06:01:42.080Z,12.10
2018-10-07T06:04:22.474Z,12.10
2018-10-07T06:06:55.491Z,12.20
2018-10-07T06:09:28.399Z,12.30
2018-10-07T06:11:58.082Z,12.50
2018-10-07T06:14:38.627Z,12.70
2018-10-07T06:17:08.000Z,13.00
2018-10-07T06:19:37.818Z,13.40
2018-10-07T06:22:07.311Z,13.80
2018-10-07T06:24:36.933Z,14.10
2018-10-07T06:27:07.341Z,14.30
2018-10-07T06:29:36.656Z,14.70
2018-10-07T06:32:05.841Z,15.20
2018-10-07T06:34:35.718Z,15.60
2018-10-07T06:37:04.977Z,16.10
2018-10-07T06:39:34.635Z,16.40
2018-10-07T06:43:06.458Z,16.60
2018-10-07T06:45:36.148Z,16.60
2018-10-07T06:48:06.289Z,16.60
2018-10-07T06:50:36.851Z,16.60
2018-10-07T06:53:06.507Z,16.50
2018-10-07T06:55:36.110Z,16.20
2018-10-07T06:58:06.712Z,16.00
2018-10-07T07:00:36.131Z,15.70
2018-10-07T07:03:05.893Z,15.50
2018-10-07T07:05:35.333Z,15.30
2018-10-07T07:08:06.983Z,15.10
2018-10-07T07:10:36.579Z,15.00
2018-10-07T07:13:12.187Z,14.80
2018-10-07T07:15:42.253Z,14.70
2018-10-07T07:18:13.588Z,14.70
2018-10-07T07:20:43.807Z,14.70
2018-10-07T07:23:14.976Z,14.70
2018-10-07T07:25:45.091Z,14.70
2018-10-07T07:28:14.663Z,14.60
2018-10-07T07:30:44.267Z,14.60
2018-10-07T07:33:13.716Z,14.50
2018-10-07T07:35:43.347Z,14.50
2018-10-07T07:38:13.491Z,14.60
2018-10-07T07:40:43.116Z,14.70
2018-10-07T07:43:12.846Z,14.70
2018-10-07T07:45:42.667Z,14.80
2018-10-07T07:48:12.200Z,14.80
2018-10-07T07:50:41.863Z,14.80
2018-10-07T07:53:12.232Z,14.80
2018-10-07T07:55:41.661Z,14.80
2018-10-07T07:58:11.226Z,14.80
2018-10-07T08:00:40.804Z,14.80
2018-10-07T08:03:10.229Z,14.70
2018-10-07T08:05:39.781Z,14.80
2018-10-07T08:08:09.777Z,14.90
2018-10-07T08:10:39.359Z,15.00
2018-10-07T08:13:08.947Z,15.10
2018-10-07T08:15:44.339Z,15.10
2018-10-07T08:18:14.059Z,15.00
2018-10-07T08:20:43.717Z,15.00
2018-10-07T08:23:13.160Z,15.00
2018-10-07T08:25:42.464Z,15.00
2018-10-07T08:28:11.785Z,15.00
2018-10-07T08:30:41.624Z,15.00
2018-10-07T08:33:11.258Z,15.00
2018-10-07T08:35:48.652Z,15.10
2018-10-07T08:38:18.006Z,15.00
2018-10-07T08:40:49.257Z,14.80
2018-10-07T08:43:18.785Z,14.80
2018-10-07T08:45:48.988Z,14.70
2018-10-07T08:48:18.250Z,14.70
2018-10-07T08:50:48.182Z,14.60
2018-10-07T08:53:17.618Z,14.60
2018-10-07T08:55:47.170Z,14.60
2018-10-07T08:58:16.653Z,14.60
2018-10-07T09:00:46.226Z,14.50
2018-10-07T09:03:15.602Z,14.50
2018-10-07T09:05:44.982Z,14.50
2018-10-07T09:08:14.434Z,14.60
2018-10-07T09:10:43.517Z,14.60
2018-10-07T09:13:13.180Z,14.50
2018-10-07T09:15:42.617Z,14.40
2018-10-07T09:18:12.873Z,14.30
2018-10-07T09:20:44.117Z,14.20
2018-10-07T09:23:14.968Z,14.10
2018-10-07T09:25:45.192Z,14.00
2018-10-07T09:28:14.833Z,13.90
2018-10-07T09:30:45.340Z,13.80
2018-10-07T09:33:15.083Z,13.70
2018-10-07T09:35:45.921Z,13.70
2018-10-07T09:38:19.941Z,13.70
2018-10-07T09:40:49.485Z,13.70
2018-10-07T09:43:19.065Z,13.70
2018-10-07T09:45:48.233Z,13.50
2018-10-07T09:48:17.821Z,13.50
2018-10-07T09:50:47.038Z,13.20
2018-10-07T09:53:16.387Z,13.00
2018-10-07T09:55:45.717Z,13.10
2018-10-07T09:58:15.673Z,13.20
2018-10-07T10:00:45.164Z,13.30
2018-10-07T10:03:14.610Z,13.40
2018-10-07T10:05:44.202Z,13.50
2018-10-07T10:08:13.901Z,13.60
2018-10-07T10:10:44.051Z,13.60
2018-10-07T10:13:13.888Z,13.40
2018-10-07T10:15:43.795Z,13.20
2018-10-07T10:18:17.767Z,13.10
2018-10-07T10:20:56.569Z,13.00
2018-10-07T10:23:38.178Z,13.00
2018-10-07T10:26:10.556Z,13.00
2018-10-07T10:28:56.864Z,12.90
2018-10-07T10:31:36.186Z,12.90
2018-10-07T10:34:12.285Z,12.90
2018-10-07T10:36:44.416Z,12.80
2018-10-07T10:39:24.964Z,12.90
2018-10-07T10:42:00.291Z,13.00
2018-10-07T10:44:33.585Z,13.00
2018-10-07T10:47:08.417Z,13.30
2018-10-07T10:49:52.822Z,13.70
2018-10-07T10:52:27.230Z,14.10
2018-10-07T10:55:01.429Z,14.70
2018-10-07T10:57:35.722Z,15.10
2018-10-07T11:00:11.575Z,15.10
2018-10-07T11:02:49.994Z,15.20
2018-10-07T11:05:39.698Z,15.20
2018-10-07T11:08:19.998Z,15.00
2018-10-07T11:11:03.105Z,14.90
2018-10-07T11:13:38.685Z,14.80
2018-10-07T11:16:14.793Z,14.60
2018-10-07T11:18:54.550Z,14.50
2018-10-07T11:23:33.741Z,14.40
2018-10-07T11:26:19.061Z,14.30
2018-10-07T11:31:13.106Z,14.10
2018-10-07T11:33:53.916Z,13.90
2018-10-07T11:36:35.325Z,14.00
2018-10-07T11:39:11.279Z,13.70
2018-10-07T11:41:44.730Z,13.70
2018-10-07T11:44:21.441Z,13.70
2018-10-07T11:47:02.559Z,13.60
2018-10-07T11:49:38.176Z,13.60
2018-10-07T11:53:15.852Z,13.80
2018-10-07T11:55:46.227Z,13.80
2018-10-07T11:58:15.486Z,13.80
2018-10-07T12:00:44.888Z,13.70
2018-10-07T12:03:14.263Z,13.80
2018-10-07T12:05:43.978Z,13.90
2018-10-07T12:08:13.445Z,13.90
2018-10-07T12:10:42.850Z,13.80
2018-10-07T12:13:12.321Z,14.00
2018-10-07T12:15:42.631Z,14.10
2018-10-07T12:18:12.055Z,14.10
2018-10-07T12:20:41.591Z,14.10
2018-10-07T12:23:10.885Z,14.00
2018-10-07T12:25:40.492Z,14.20
2018-10-07T12:28:10.408Z,14.40
2018-10-07T12:30:39.809Z,14.80
2018-10-07T12:33:09.248Z,15.00
2018-10-07T12:35:38.589Z,15.10
2018-10-07T12:38:08.044Z,14.90
2018-10-07T12:40:37.374Z,15.00
2018-10-07T12:43:06.868Z,15.00
2018-10-07T12:45:36.272Z,15.00
2018-10-07T12:48:05.671Z,15.00
2018-10-07T12:50:34.674Z,14.90
2018-10-07T12:53:03.953Z,14.70
2018-10-07T12:55:32.953Z,14.60
2018-10-07T12:58:02.097Z,14.60
2018-10-07T13:00:32.026Z,14.60
2018-10-07T13:03:01.602Z,14.60
2018-10-07T13:05:31.574Z,14.80
2018-10-07T13:08:01.025Z,14.90
2018-10-07T13:10:30.864Z,15.00
2018-10-07T13:13:00.187Z,14.80
2018-10-07T13:15:29.580Z,14.80
2018-10-07T13:17:59.065Z,14.90
2018-10-07T13:20:28.365Z,15.10
2018-10-07T13:22:57.594Z,15.20
2018-10-07T13:25:27.059Z,15.20
2018-10-07T13:27:56.326Z,15.20
2018-10-07T13:30:25.667Z,15.20
2018-10-07T13:32:55.133Z,15.30
2018-10-07T13:35:24.372Z,15.20
2018-10-07T13:37:53.977Z,15.00
2018-10-07T13:40:23.176Z,14.80
2018-10-07T13:42:54.628Z,14.80
2018-10-07T13:45:24.027Z,14.90
2018-10-07T13:47:53.464Z,14.90
2018-10-07T13:50:22.969Z,14.90
2018-10-07T13:52:53.316Z,14.90
2018-10-07T13:55:22.525Z,15.00
2018-10-07T13:57:52.600Z,14.80
2018-10-07T14:00:21.914Z,14.50
2018-10-07T14:02:51.324Z,14.40
2018-10-07T14:05:20.679Z,14.40
2018-10-07T14:07:49.830Z,14.50
2018-10-07T14:10:19.170Z,14.50
2018-10-07T14:12:48.506Z,14.50
2018-10-07T14:15:18.022Z,14.60
2018-10-07T14:17:47.338Z,14.70
2018-10-07T14:20:16.619Z,14.60
2018-10-07T14:22:46.219Z,14.60
2018-10-07T14:25:16.500Z,14.60
2018-10-07T14:27:46.042Z,14.70
2018-10-07T14:30:15.471Z,14.80
2018-10-07T14:32:44.878Z,14.90
2018-10-07T14:35:14.354Z,14.80
2018-10-07T14:37:43.682Z,14.90
2018-10-07T14:40:13.137Z,15.00
2018-10-07T14:42:42.540Z,14.90
2018-10-07T14:45:11.906Z,15.00
2018-10-07T14:47:41.552Z,15.00
2018-10-07T14:50:10.818Z,15.10
2018-10-07T14:52:40.194Z,15.20
2018-10-07T14:55:09.718Z,14.90
2018-10-07T14:57:39.083Z,14.60
2018-10-07T15:00:08.491Z,14.40
2018-10-07T15:02:37.877Z,14.30
2018-10-07T15:05:07.286Z,14.30
2018-10-07T15:07:36.691Z,14.30
2018-10-07T15:10:06.347Z,14.30
2018-10-07T15:12:35.870Z,14.20
2018-10-07T15:15:05.876Z,14.20
2018-10-07T15:17:35.524Z,14.20
2018-10-07T15:20:07.294Z,14.10
2018-10-07T15:22:36.690Z,14.00
2018-10-07T15:25:06.033Z,14.00
2018-10-07T15:27:35.504Z,14.10
2018-10-07T15:30:06.365Z,14.10
2018-10-07T15:32:35.742Z,14.00
2018-10-07T15:35:05.198Z,14.00
2018-10-07T15:37:34.616Z,13.90
2018-10-07T15:40:06.896Z,13.90
2018-10-07T15:42:36.295Z,13.90
2018-10-07T15:45:05.753Z,14.00
2018-10-07T15:47:35.254Z,14.00
2018-10-07T15:50:04.845Z,14.00
2018-10-07T15:52:34.209Z,14.00
2018-10-07T15:55:03.549Z,14.00
2018-10-07T15:57:32.929Z,13.90
2018-10-07T16:00:02.446Z,13.80
2018-10-07T16:02:31.925Z,13.70
2018-10-07T16:05:01.284Z,13.70
2018-10-07T16:07:30.409Z,13.60
2018-10-07T16:09:59.581Z,13.60
2018-10-07T16:12:28.536Z,13.60
2018-10-07T16:14:58.057Z,13.50
2018-10-07T16:17:27.259Z,13.30
2018-10-07T16:19:56.625Z,13.30
2018-10-07T16:22:26.013Z,13.20
2018-10-07T16:24:55.376Z,13.10
2018-10-07T16:27:24.580Z,13.00
2018-10-07T16:29:53.948Z,12.90
2018-10-07T16:32:23.425Z,12.90
2018-10-07T16:34:52.621Z,12.80
2018-10-07T16:37:22.274Z,12.80
2018-10-07T16:39:51.971Z,12.80
2018-10-07T16:42:21.005Z,12.70
2018-10-07T16:44:50.392Z,12.70
2018-10-07T16:47:19.454Z,12.50
2018-10-07T16:49:48.722Z,12.50
2018-10-07T16:52:17.882Z,12.50
2018-10-07T16:54:47.369Z,12.40
2018-10-07T16:57:16.785Z,12.40
2018-10-07T16:59:46.928Z,12.40
2018-10-07T17:02:16.292Z,12.30
2018-10-07T17:04:45.637Z,12.20
2018-10-07T17:07:14.920Z,12.20
2018-10-07T17:09:44.033Z,12.20
2018-10-07T17:12:13.328Z,12.30
2018-10-07T17:14:42.873Z,12.40
2018-10-07T17:17:12.142Z,12.40
2018-10-07T17:19:44.283Z,12.40
2018-10-07T17:22:13.533Z,12.50
2018-10-07T17:24:42.888Z,12.50
2018-10-07T17:27:12.099Z,12.50
2018-10-07T17:29:41.596Z,12.50
2018-10-07T17:32:10.814Z,12.50
2018-10-07T17:34:40.045Z,12.50
2018-10-07T17:37:09.413Z,12.50
2018-10-07T17:39:38.748Z,12.40
2018-10-07T17:42:07.985Z,12.40
2018-10-07T17:44:37.140Z,12.40
2018-10-07T17:47:06.553Z,12.40
2018-10-07T17:49:35.789Z,12.40
2018-10-07T17:52:04.975Z,12.40
2018-10-07T17:54:34.501Z,12.30
2018-10-07T17:57:03.938Z,12.30
2018-10-07T17:59:33.395Z,12.20
2018-10-07T18:02:03.277Z,12.20
2018-10-07T18:04:32.515Z,12.10
2018-10-07T18:07:01.912Z,12.00
2018-10-07T18:09:31.255Z,11.90
2018-10-07T18:12:00.552Z,11.80
2018-10-07T18:14:29.996Z,11.70
2018-10-07T18:16:59.005Z,11.60
2018-10-07T18:19:28.094Z,11.50
2018-10-07T18:21:57.472Z,11.50
2018-10-07T18:24:26.764Z,11.40
2018-10-07T18:26:55.922Z,11.30
2018-10-07T18:29:25.162Z,11.20
2018-10-07T18:31:56.617Z,11.20
2018-10-07T18:34:25.758Z,11.10
2018-10-07T18:37:02.423Z,11.20
2018-10-07T18:39:31.577Z,11.10
2018-10-07T18:42:00.855Z,11.10
2018-10-07T18:44:30.073Z,10.90
2018-10-07T18:46:59.182Z,10.80
2018-10-07T18:49:28.423Z,10.70
2018-10-07T18:51:57.791Z,10.50
2018-10-07T18:54:27.102Z,10.40
2018-10-07T18:56:56.455Z,10.40
2018-10-07T18:59:25.753Z,10.50
2018-10-07T19:01:55.225Z,10.50
2018-10-07T19:04:24.496Z,10.50
2018-10-07T19:06:53.794Z,10.50
2018-10-07T19:09:23.327Z,10.50
2018-10-07T19:11:52.674Z,10.50
2018-10-07T19:14:22.165Z,10.40
2018-10-07T19:16:51.345Z,10.40
2018-10-07T19:19:20.619Z,10.50
2018-10-07T19:21:49.917Z,10.50
2018-10-07T19:24:19.165Z,10.50
2018-10-07T19:26:48.515Z,10.40
2018-10-07T19:29:17.519Z,10.50
2018-10-07T19:31:46.803Z,10.40
2018-10-07T19:34:15.910Z,10.40
2018-10-07T19:36:45.060Z,10.30
2018-10-07T19:39:14.105Z,10.40
2018-10-07T19:41:43.302Z,10.40
2018-10-07T19:44:12.393Z,10.40
2018-10-07T19:46:41.557Z,10.50
2018-10-07T19:49:10.685Z,10.40
2018-10-07T19:51:39.891Z,10.40
2018-10-07T19:54:08.919Z,10.40
2018-10-07T19:56:38.294Z,10.40
2018-10-07T19:59:07.834Z,10.40
2018-10-07T20:01:37.235Z,10.30
2018-10-07T20:04:06.911Z,10.30
2018-10-07T20:06:35.976Z,10.20
2018-10-07T20:09:07.124Z,10.20
2018-10-07T20:11:36.627Z,10.20
2018-10-07T20:14:06.673Z,10.30
2018-10-07T20:16:35.879Z,10.30
2018-10-07T20:19:04.986Z,10.20
2018-10-07T20:21:34.063Z,10.20
2018-10-07T20:24:03.254Z,10.10
2018-10-07T20:26:33.498Z,10.10
2018-10-07T20:29:02.977Z,10.10
2018-10-07T20:31:32.212Z,10.10
2018-10-07T20:34:01.690Z,10.00
2018-10-07T20:36:30.729Z,10.00
2018-10-07T20:38:59.848Z,9.90
2018-10-07T20:41:29.468Z,10.00
2018-10-07T20:43:58.871Z,9.90
2018-10-07T20:46:28.977Z,9.90
2018-10-07T20:48:58.349Z,9.90
2018-10-07T20:51:27.612Z,9.90
2018-10-07T20:53:56.871Z,9.80
2018-10-07T20:56:26.101Z,9.80
2018-10-07T20:58:55.244Z,9.90
2018-10-07T21:01:24.422Z,9.90
2018-10-07T21:03:53.926Z,9.90
2018-10-07T21:06:23.005Z,9.90
2018-10-07T21:08:52.072Z,9.90
2018-10-07T21:11:21.343Z,9.90
2018-10-07T21:13:51.649Z,9.90
2018-10-07T21:16:20.691Z,9.90
2018-10-07T21:18:49.834Z,9.90
2018-10-07T21:21:18.956Z,9.80
2018-10-07T21:23:48.115Z,9.80
2018-10-07T21:26:17.448Z,9.70
2018-10-07T21:28:46.613Z,9.70
2018-10-07T21:31:22.590Z,9.60
2018-10-07T21:33:51.913Z,9.50
2018-10-07T21:36:21.238Z,9.40
2018-10-07T21:38:50.607Z,9.30
2018-10-07T21:41:19.803Z,9.20
2018-10-07T21:43:49.180Z,9.10
2018-10-07T21:46:18.305Z,9.20
2018-10-07T21:48:47.433Z,9.20
2018-10-07T21:51:16.785Z,9.20
2018-10-07T21:53:46.115Z,9.20
2018-10-07T21:56:15.228Z,9.20
2018-10-07T21:58:44.540Z,9.20
2018-10-07T22:01:13.659Z,9.20
2018-10-07T22:03:42.820Z,9.20
2018-10-07T22:06:11.911Z,9.20
2018-10-07T22:08:41.065Z,9.20
2018-10-07T22:11:10.115Z,9.20
2018-10-07T22:13:39.521Z,9.20
2018-10-07T22:16:08.589Z,9.20
2018-10-07T22:18:37.913Z,9.20
2018-10-07T22:21:07.329Z,9.30
2018-10-07T22:23:36.710Z,9.20
2018-10-07T22:26:05.948Z,9.10
2018-10-07T22:28:36.004Z,9.10
2018-10-07T22:31:04.994Z,9.10
2018-10-07T22:33:34.043Z,9.00
2018-10-07T22:36:03.362Z,9.00
2018-10-07T22:38:32.390Z,8.90
2018-10-07T22:41:01.767Z,8.90
2018-10-07T22:43:30.727Z,8.90
2018-10-07T22:46:00.019Z,8.80
2018-10-07T22:48:29.095Z,8.80
2018-10-07T22:50:58.058Z,8.70
2018-10-07T22:53:27.035Z,8.60
2018-10-07T22:55:58.247Z,8.60
2018-10-07T22:58:27.256Z,8.60
2018-10-07T23:00:56.392Z,8.50
2018-10-07T23:03:25.435Z,8.50
2018-10-07T23:05:54.554Z,8.50
2018-10-07T23:08:23.510Z,8.50
2018-10-07T23:10:52.458Z,8.60
2018-10-07T23:13:21.445Z,8.50
2018-10-07T23:15:51.235Z,8.40
2018-10-07T23:18:20.512Z,8.30
2018-10-07T23:20:49.640Z,8.20
2018-10-07T23:23:18.622Z,8.10
2018-10-07T23:25:47.927Z,8.00
2018-10-07T23:28:16.940Z,8.00
2018-10-07T23:30:46.926Z,7.90
2018-10-07T23:33:16.108Z,8.00
2018-10-07T23:35:45.321Z,7.90
2018-10-07T23:38:14.461Z,7.90
2018-10-07T23:40:46.811Z,7.90
2018-10-07T23:43:16.075Z,7.80
2018-10-07T23:45:45.576Z,7.80
2018-10-07T23:48:14.566Z,7.70
2018-10-07T23:50:43.645Z,7.70
2018-10-07T23:53:12.604Z,7.70
2018-10-07T23:55:41.765Z,7.80
2018-10-07T23:58:10.860Z,7.90
